Time;durP1;ratioP1;P1;durP2;ratioP2;P2;SDS_P1;SDS_P2;PMS_P1;PMS_P2;Temp;Humidity;BMP_temperature;BMP_pressure;BME280_temperature;BME280_humidity;BME280_pressure;Samples;Min_cycle;Max_cycle;Signal;HPM_P1;HPM_P2
2023/04/23 00:01:11;;;;;;;6.17;2.73;;;;;;;;;;5035265;28;20686;-72
2023/04/23 00:04:18;;;;;;;4.10;3.03;;;;;;;;;;5035396;28;20524;-71
2023/04/23 00:07:23;;;;;;;3.03;2.73;;;;;;;;;;5035642;28;20181;-72
2023/04/23 00:10:27;;;;;;;6.30;3.17;;;;;;;;;;5023087;28;20181;-72
2023/04/23 00:13:31;;;;;;;5.40;3.10;;;;;;;;;;5034915;28;20185;-72
2023/04/23 00:16:37;;;;;;;3.73;2.63;;;;;;;;;;5022992;28;20200;-72
2023/04/23 00:19:41;;;;;;;3.83;2.80;;;;;;;;;;5022988;28;20208;-72
2023/04/23 00:22:46;;;;;;;4.83;2.83;;;;;;;;;;5022919;28;20177;-72
2023/04/23 00:25:50;;;;;;;3.23;2.83;;;;;;;;;;5000453;28;20181;-72
2023/04/23 00:28:54;;;;;;;2.73;2.50;;;;;;;;;;5022804;28;20181;-72
2023/04/23 00:31:59;;;;;;;4.20;2.80;;;;;;;;;;5023000;28;20216;-72
2023/04/23 00:35:03;;;;;;;2.80;2.47;;;;;;;;;;5000084;28;20544;-72
2023/04/23 00:38:08;;;;;;;5.13;2.83;;;;;;;;;;5022843;28;20177;-72
2023/04/23 00:41:13;;;;;;;3.90;3.10;;;;;;;;;;5022735;28;20225;-72
2023/04/23 00:44:17;;;;;;;4.73;3.23;;;;;;;;;;5022214;28;20181;-72
2023/04/23 00:47:23;;;;;;;4.00;3.00;;;;;;;;;;5035121;28;20173;-72
2023/04/23 00:50:27;;;;;;;3.83;3.10;;;;;;;;;;5022298;28;20181;-72
2023/04/23 00:53:32;;;;;;;3.30;2.80;;;;;;;;;;5011004;28;20181;-72
2023/04/23 00:56:36;;;;;;;6.27;3.07;;;;;;;;;;4999438;28;20196;-72
2023/04/23 00:59:40;;;;;;;4.53;2.93;;;;;;;;;;5021889;28;20209;-71
2023/04/23 01:02:47;;;;;;;3.47;2.97;;;;;;;;;;5022097;28;20216;-72
2023/04/23 01:05:52;;;;;;;6.80;2.97;;;;;;;;;;5010527;28;20544;-72
2023/04/23 01:08:57;;;;;;;5.00;2.93;;;;;;;;;;4999765;28;20181;-72
2023/04/23 01:12:04;;;;;;;3.43;3.00;;;;;;;;;;5021883;28;20212;-72
2023/04/23 01:15:09;;;;;;;5.20;2.80;;;;;;;;;;5010670;28;20180;-72
2023/04/23 01:18:13;;;;;;;3.97;2.87;;;;;;;;;;5021803;28;20504;-72
2023/04/23 01:21:18;;;;;;;4.40;2.83;;;;;;;;;;5021722;28;20212;-72
2023/04/23 01:24:23;;;;;;;5.97;3.13;;;;;;;;;;5034414;28;20177;-72
2023/04/23 01:27:27;;;;;;;7.57;3.03;;;;;;;;;;5033866;28;20333;-72
2023/04/23 01:30:32;;;;;;;4.67;2.77;;;;;;;;;;5033904;28;20181;-72
2023/04/23 01:33:39;;;;;;;4.10;3.10;;;;;;;;;;5033911;28;20185;-72
2023/04/23 01:36:45;;;;;;;4.90;3.27;;;;;;;;;;5021008;28;20667;-72
2023/04/23 01:39:50;;;;;;;5.73;3.07;;;;;;;;;;5020620;28;20663;-72
2023/04/23 01:42:55;;;;;;;3.67;2.97;;;;;;;;;;5021075;28;20176;-72
2023/04/23 01:45:59;;;;;;;6.80;3.03;;;;;;;;;;5033843;28;20177;-72
2023/04/23 01:49:05;;;;;;;8.33;3.50;;;;;;;;;;5021273;28;20173;-72
2023/04/23 01:52:10;;;;;;;4.23;3.20;;;;;;;;;;5021186;28;20216;-72
2023/04/23 01:55:14;;;;;;;3.80;3.07;;;;;;;;;;5021531;28;20177;-72
2023/04/23 01:58:18;;;;;;;3.77;3.10;;;;;;;;;;5021383;28;20631;-72
2023/04/23 02:01:23;;;;;;;4.27;3.00;;;;;;;;;;5021307;28;20216;-72
2023/04/23 02:04:28;;;;;;;4.70;3.30;;;;;;;;;;5021115;28;20181;-72
2023/04/23 02:07:33;;;;;;;4.10;3.20;;;;;;;;;;5009810;28;20180;-72
2023/04/23 02:10:37;;;;;;;4.33;3.17;;;;;;;;;;5021182;28;20512;-72
2023/04/23 02:13:41;;;;;;;4.57;3.70;;;;;;;;;;5032912;28;20181;-72
2023/04/23 02:16:46;;;;;;;4.27;2.97;;;;;;;;;;5020836;28;20185;-72
2023/04/23 02:19:50;;;;;;;6.50;3.57;;;;;;;;;;5021232;28;20205;-72
2023/04/23 02:22:55;;;;;;;5.37;3.57;;;;;;;;;;5020908;28;20181;-72
2023/04/23 02:25:59;;;;;;;4.43;3.10;;;;;;;;;;5033066;28;20197;-72
2023/04/23 02:29:03;;;;;;;4.40;3.50;;;;;;;;;;5020675;28;20200;-72
2023/04/23 02:32:08;;;;;;;6.83;3.40;;;;;;;;;;5020599;28;20695;-73
2023/04/23 02:35:12;;;;;;;3.43;3.00;;;;;;;;;;5032575;28;20209;-72
2023/04/23 02:38:18;;;;;;;5.00;3.20;;;;;;;;;;5032878;28;20647;-72
2023/04/23 02:41:22;;;;;;;4.97;3.47;;;;;;;;;;5020796;28;20687;-72
2023/04/23 02:44:26;;;;;;;5.47;3.30;;;;;;;;;;5020423;28;20180;-72
2023/04/23 02:47:30;;;;;;;4.87;3.03;;;;;;;;;;5020511;28;20177;-73
2023/04/23 02:50:34;;;;;;;4.10;3.20;;;;;;;;;;5022190;28;20177;-73
2023/04/23 02:53:39;;;;;;;5.97;3.87;;;;;;;;;;5013415;28;20177;-73
2023/04/23 02:56:43;;;;;;;5.83;3.63;;;;;;;;;;5024389;28;20181;-72
2023/04/23 02:59:47;;;;;;;4.60;3.13;;;;;;;;;;5023944;28;20568;-73
2023/04/23 03:02:53;;;;;;;6.47;3.53;;;;;;;;;;5013195;28;20201;-73
2023/04/23 03:05:58;;;;;;;5.10;3.40;;;;;;;;;;5023963;28;20196;-73
2023/04/23 03:09:02;;;;;;;6.40;3.27;;;;;;;;;;5012797;28;20660;-73
2023/04/23 03:12:07;;;;;;;4.83;3.10;;;;;;;;;;5012650;28;20217;-73
2023/04/23 03:15:11;;;;;;;4.50;3.30;;;;;;;;;;5023855;28;20181;-73
2023/04/23 03:18:15;;;;;;;6.60;3.30;;;;;;;;;;5023979;28;20517;-73
2023/04/23 03:21:20;;;;;;;4.67;3.80;;;;;;;;;;5012255;28;20216;-73
2023/04/23 03:24:24;;;;;;;5.40;3.90;;;;;;;;;;5013337;28;20521;-73
2023/04/23 03:27:28;;;;;;;4.50;3.07;;;;;;;;;;5012208;28;20185;-73
2023/04/23 03:30:33;;;;;;;4.23;3.53;;;;;;;;;;5012731;28;20177;-73
2023/04/23 03:33:37;;;;;;;5.63;3.27;;;;;;;;;;5035802;28;20180;-73
2023/04/23 03:36:43;;;;;;;4.03;3.27;;;;;;;;;;5023206;28;20205;-73
2023/04/23 03:39:48;;;;;;;5.97;3.40;;;;;;;;;;5023549;28;20671;-73
2023/04/23 03:42:52;;;;;;;5.73;3.37;;;;;;;;;;5023571;28;20207;-73
2023/04/23 03:46:03;;;;;;;7.63;3.03;;;;;;;;;;5001965;28;20177;-73
2023/04/23 03:49:11;;;;;;;5.27;3.20;;;;;;;;;;5001057;28;20197;-73
2023/04/23 03:52:15;;;;;;;3.10;2.80;;;;;;;;;;5022978;28;20719;-73
2023/04/23 03:55:20;;;;;;;6.43;3.13;;;;;;;;;;5012005;28;20192;-73
2023/04/23 03:58:24;;;;;;;5.57;3.27;;;;;;;;;;5022840;28;20192;-73
2023/04/23 04:01:31;;;;;;;4.63;3.37;;;;;;;;;;5011166;28;20212;-73
2023/04/23 04:04:35;;;;;;;5.50;2.63;;;;;;;;;;5011895;28;20200;-72
2023/04/23 04:07:40;;;;;;;5.80;3.00;;;;;;;;;;5023268;28;20200;-73
2023/04/23 04:10:44;;;;;;;4.53;3.20;;;;;;;;;;5022752;28;20212;-73
2023/04/23 04:13:49;;;;;;;4.07;3.67;;;;;;;;;;5022936;28;20181;-73
2023/04/23 04:16:52;;;;;;;4.80;3.40;;;;;;;;;;5034791;28;20181;-73
2023/04/23 04:19:56;;;;;;;5.67;3.70;;;;;;;;;;5022604;28;20209;-73
2023/04/23 04:23:01;;;;;;;5.67;3.73;;;;;;;;;;5035523;28;20181;-73
2023/04/23 04:26:06;;;;;;;5.63;3.60;;;;;;;;;;5011805;28;20180;-73
2023/04/23 04:29:11;;;;;;;6.90;3.10;;;;;;;;;;5022879;28;20173;-73
2023/04/23 04:32:15;;;;;;;7.03;3.37;;;;;;;;;;5034737;28;20212;-73
2023/04/23 04:35:19;;;;;;;3.80;3.30;;;;;;;;;;5034352;28;20675;-73
2023/04/23 04:38:23;;;;;;;6.43;3.20;;;;;;;;;;5022479;28;20638;-73
2023/04/23 04:41:27;;;;;;;5.47;3.90;;;;;;;;;;5034622;28;20228;-75
2023/04/23 04:44:31;;;;;;;5.83;3.47;;;;;;;;;;5034439;28;20516;-72
2023/04/23 04:47:35;;;;;;;4.43;3.43;;;;;;;;;;5022249;28;20181;-73
2023/04/23 04:50:39;;;;;;;6.10;4.23;;;;;;;;;;5034529;28;20181;-73
2023/04/23 04:53:44;;;;;;;6.53;3.87;;;;;;;;;;5022234;28;20185;-73
2023/04/23 04:56:48;;;;;;;7.63;4.07;;;;;;;;;;5010822;28;20177;-73
2023/04/23 04:59:52;;;;;;;9.80;4.07;;;;;;;;;;5021979;28;20220;-73
2023/04/23 05:02:57;;;;;;;7.23;4.17;;;;;;;;;;5022051;28;20652;-73
2023/04/23 05:06:02;;;;;;;4.60;4.00;;;;;;;;;;5021762;28;20181;-73
2023/04/23 05:09:07;;;;;;;7.83;3.70;;;;;;;;;;5022064;28;20181;-73
2023/04/23 05:12:11;;;;;;;5.50;3.60;;;;;;;;;;5021766;28;20208;-73
2023/04/23 05:15:15;;;;;;;4.87;3.93;;;;;;;;;;5033694;28;20625;-72
2023/04/23 05:18:19;;;;;;;6.50;3.43;;;;;;;;;;5021870;28;20177;-73
2023/04/23 05:21:23;;;;;;;6.17;3.60;;;;;;;;;;5033408;28;20224;-72
2023/04/23 05:24:27;;;;;;;7.43;3.73;;;;;;;;;;5034026;28;20181;-73
2023/04/23 05:27:31;;;;;;;4.77;3.70;;;;;;;;;;5033788;28;20636;-73
2023/04/23 05:30:35;;;;;;;5.77;3.90;;;;;;;;;;5033612;28;20632;-73
2023/04/23 05:33:39;;;;;;;6.10;3.80;;;;;;;;;;5033667;28;20180;-72
2023/04/23 05:36:43;;;;;;;8.93;3.93;;;;;;;;;;5021050;28;20208;-73
2023/04/23 05:39:47;;;;;;;6.50;3.97;;;;;;;;;;5010042;28;20200;-73
2023/04/23 05:42:51;;;;;;;7.23;3.87;;;;;;;;;;5033667;28;20196;-73
2023/04/23 05:45:57;;;;;;;8.40;4.00;;;;;;;;;;5033569;28;20213;-73
2023/04/23 05:49:01;;;;;;;5.67;4.20;;;;;;;;;;5033412;28;20181;-73
2023/04/23 05:52:05;;;;;;;7.87;4.43;;;;;;;;;;5009557;28;20208;-73
2023/04/23 05:55:10;;;;;;;5.70;4.20;;;;;;;;;;5033495;28;20180;-73
2023/04/23 05:58:14;;;;;;;5.67;4.40;;;;;;;;;;5021185;28;20173;-73
2023/04/23 06:01:18;;;;;;;25.40;11.93;;;;;;;;;;5033259;28;20568;-73
2023/04/23 06:04:23;;;;;;;40.33;20.93;;;;;;;;;;5033047;28;20646;-73
2023/04/23 06:07:27;;;;;;;20.07;12.80;;;;;;;;;;5032952;28;20555;-74
2023/04/23 06:10:32;;;;;;;8.27;5.80;;;;;;;;;;5021278;28;20188;-73
2023/04/23 06:13:39;;;;;;;9.70;5.60;;;;;;;;;;5021107;28;20639;-73
2023/04/23 06:16:43;;;;;;;9.23;7.50;;;;;;;;;;5021499;28;20184;-74
2023/04/23 06:19:47;;;;;;;21.53;16.90;;;;;;;;;;5032728;28;20181;-73
2023/04/23 06:22:51;;;;;;;7.90;6.03;;;;;;;;;;5021264;28;20559;-74
2023/04/23 06:25:55;;;;;;;9.07;5.23;;;;;;;;;;5023325;28;20201;-74
2023/04/23 06:29:00;;;;;;;4.33;3.80;;;;;;;;;;5024639;28;20196;-73
2023/04/23 06:32:09;;;;;;;4.60;3.70;;;;;;;;;;5014486;28;20568;-74
2023/04/23 06:35:13;;;;;;;6.00;3.73;;;;;;;;;;5024582;28;20204;-74
2023/04/23 06:38:18;;;;;;;7.27;5.23;;;;;;;;;;5037178;28;20185;-72
2023/04/23 06:41:22;;;;;;;3.80;3.13;;;;;;;;;;5024600;28;20232;-72
2023/04/23 06:44:37;;;;;;;4.37;3.30;;;;;;;;;;5013380;28;20628;-73
2023/04/23 06:47:42;;;;;;;6.73;3.53;;;;;;;;;;5024808;28;20513;-72
2023/04/23 06:50:47;;;;;;;4.37;3.37;;;;;;;;;;5036384;28;20212;-72
2023/04/23 06:53:51;;;;;;;4.83;3.93;;;;;;;;;;5024165;28;20196;-72
2023/04/23 06:56:56;;;;;;;6.17;3.93;;;;;;;;;;5036301;28;20244;-73
2023/04/23 07:00:00;;;;;;;6.60;4.50;;;;;;;;;;5036220;28;20197;-72
2023/04/23 07:03:10;;;;;;;6.27;4.67;;;;;;;;;;5014155;28;20181;-72
2023/04/23 07:06:15;;;;;;;7.53;4.30;;;;;;;;;;5024147;28;20180;-73
2023/04/23 07:09:19;;;;;;;5.30;4.67;;;;;;;;;;5036476;28;20185;-72
2023/04/23 07:12:23;;;;;;;4.00;3.60;;;;;;;;;;5024035;28;20664;-72
2023/04/23 07:15:27;;;;;;;4.83;3.50;;;;;;;;;;5036229;28;20197;-72
2023/04/23 07:18:32;;;;;;;5.07;4.13;;;;;;;;;;5024277;28;20532;-73
2023/04/23 07:21:36;;;;;;;5.20;3.90;;;;;;;;;;5024013;28;20564;-74
2023/04/23 07:24:40;;;;;;;5.57;3.37;;;;;;;;;;5036294;28;20189;-73
2023/04/23 07:27:44;;;;;;;4.13;3.00;;;;;;;;;;5035801;28;20200;-72
2023/04/23 07:30:49;;;;;;;6.30;4.23;;;;;;;;;;5035837;28;20221;-73
2023/04/23 07:33:55;;;;;;;5.80;3.63;;;;;;;;;;5035886;28;20177;-72
2023/04/23 07:36:59;;;;;;;3.63;2.70;;;;;;;;;;5034991;28;20173;-73
2023/04/23 07:40:04;;;;;;;4.13;2.47;;;;;;;;;;5023574;28;20177;-73
2023/04/23 07:43:08;;;;;;;2.67;2.10;;;;;;;;;;5023658;28;20172;-73
2023/04/23 07:46:12;;;;;;;3.57;2.47;;;;;;;;;;5023621;28;20210;-73
2023/04/23 07:49:16;;;;;;;3.27;2.20;;;;;;;;;;5035617;28;20180;-72
2023/04/23 07:52:20;;;;;;;2.53;2.00;;;;;;;;;;5023319;28;20580;-72
2023/04/23 07:55:24;;;;;;;2.00;1.80;;;;;;;;;;5035600;28;20180;-73
2023/04/23 07:58:29;;;;;;;2.73;2.17;;;;;;;;;;5023381;28;20185;-73
2023/04/23 08:01:33;;;;;;;3.90;3.03;;;;;;;;;;5023319;28;20229;-73
2023/04/23 08:04:37;;;;;;;3.33;2.47;;;;;;;;;;5035562;28;20181;-73
2023/04/23 08:07:41;;;;;;;2.63;2.33;;;;;;;;;;5022791;28;20189;-73
2023/04/23 08:10:45;;;;;;;2.77;2.30;;;;;;;;;;5034892;28;20568;-73
2023/04/23 08:13:49;;;;;;;2.90;2.50;;;;;;;;;;5035252;28;20192;-73
2023/04/23 08:16:53;;;;;;;4.30;2.60;;;;;;;;;;5023038;28;20197;-73
2023/04/23 08:19:58;;;;;;;3.53;2.43;;;;;;;;;;5034734;28;20200;-73
2023/04/23 08:23:03;;;;;;;3.03;2.60;;;;;;;;;;5022910;28;20180;-73
2023/04/23 08:26:07;;;;;;;5.00;3.27;;;;;;;;;;5022809;28;20185;-73
2023/04/23 08:29:11;;;;;;;4.70;2.67;;;;;;;;;;5011627;28;20188;-73
2023/04/23 08:32:15;;;;;;;3.37;2.83;;;;;;;;;;5023022;28;20212;-73
2023/04/23 08:35:21;;;;;;;4.03;2.73;;;;;;;;;;5034453;28;20201;-74
2023/04/23 08:38:25;;;;;;;4.63;2.97;;;;;;;;;;5034642;28;20185;-73
2023/04/23 08:41:43;;;;;;;2.97;2.40;;;;;;;;;;5010914;28;20229;-73
2023/04/23 08:44:49;;;;;;;5.87;2.60;;;;;;;;;;5034417;28;20185;-73
2023/04/23 08:47:58;;;;;;;3.20;2.50;;;;;;;;;;5022267;28;20177;-73
2023/04/23 08:51:04;;;;;;;3.57;2.03;;;;;;;;;;5034173;28;20217;-73
2023/04/23 08:54:13;;;;;;;2.80;2.50;;;;;;;;;;5034639;28;20573;-73
2023/04/23 08:57:18;;;;;;;2.90;2.60;;;;;;;;;;5022093;28;20197;-73
2023/04/23 09:00:24;;;;;;;3.00;2.20;;;;;;;;;;5033935;28;20181;-73
2023/04/23 09:03:29;;;;;;;4.10;2.30;;;;;;;;;;5021777;28;20173;-73
2023/04/23 09:06:33;;;;;;;3.40;2.63;;;;;;;;;;5021961;28;20185;-73
2023/04/23 09:09:38;;;;;;;4.47;2.33;;;;;;;;;;5010827;28;20185;-73
2023/04/23 09:12:43;;;;;;;3.17;2.80;;;;;;;;;;5033688;28;20213;-73
2023/04/23 09:15:47;;;;;;;3.17;2.87;;;;;;;;;;5033712;28;20180;-72
2023/04/23 09:18:52;;;;;;;3.53;3.00;;;;;;;;;;5021836;28;20177;-73
2023/04/23 09:22:00;;;;;;;4.93;2.90;;;;;;;;;;5033810;28;20560;-73
2023/04/23 09:25:06;;;;;;;4.97;2.70;;;;;;;;;;5021606;28;20193;-73
2023/04/23 09:28:11;;;;;;;3.57;3.00;;;;;;;;;;5021776;28;20185;-73
2023/04/23 09:31:19;;;;;;;6.10;3.70;;;;;;;;;;5033584;28;20208;-73
2023/04/23 09:34:24;;;;;;;4.40;3.73;;;;;;;;;;5021399;28;20177;-74
2023/04/23 09:37:28;;;;;;;4.40;3.50;;;;;;;;;;5010393;28;20173;-73
2023/04/23 09:40:32;;;;;;;3.83;3.10;;;;;;;;;;5021316;28;20185;-73
2023/04/23 09:43:40;;;;;;;4.27;2.87;;;;;;;;;;5033615;28;20636;-73
2023/04/23 09:46:44;;;;;;;4.00;2.90;;;;;;;;;;5021349;28;20193;-73
2023/04/23 09:49:49;;;;;;;5.30;3.30;;;;;;;;;;5020916;28;20196;-73
2023/04/23 09:52:55;;;;;;;3.13;2.60;;;;;;;;;;5021546;28;20181;-73
2023/04/23 09:55:59;;;;;;;3.43;2.10;;;;;;;;;;5033411;28;20181;-73
2023/04/23 09:59:28;;;;;;;3.53;2.40;;;;;;;;;;5020723;28;20181;-74
2023/04/23 10:02:32;;;;;;;5.23;2.13;;;;;;;;;;5033722;28;20224;-73
2023/04/23 10:05:39;;;;;;;4.33;1.93;;;;;;;;;;5021000;28;20659;-73
2023/04/23 10:08:43;;;;;;;4.60;1.80;;;;;;;;;;5033477;28;20177;-74
2023/04/23 10:11:48;;;;;;;1.70;1.50;;;;;;;;;;5033237;28;20216;-74
2023/04/23 10:14:56;;;;;;;5.40;2.20;;;;;;;;;;5032950;28;20181;-74
2023/04/23 10:18:02;;;;;;;2.97;2.20;;;;;;;;;;5033169;28;20180;-74
2023/04/23 10:21:06;;;;;;;2.37;1.80;;;;;;;;;;5020461;28;20216;-73
2023/04/23 10:24:12;;;;;;;2.67;1.87;;;;;;;;;;5020891;28;20192;-74
2023/04/23 10:27:18;;;;;;;3.03;2.07;;;;;;;;;;5020631;28;20176;-73
2023/04/23 10:30:22;;;;;;;2.57;1.80;;;;;;;;;;5032970;28;20521;-73
2023/04/23 10:33:28;;;;;;;2.77;1.97;;;;;;;;;;5033302;28;20181;-73
2023/04/23 10:36:32;;;;;;;2.90;1.60;;;;;;;;;;5032609;28;20200;-73
2023/04/23 10:39:37;;;;;;;2.63;1.43;;;;;;;;;;5020862;28;20205;-73
2023/04/23 10:42:43;;;;;;;1.40;1.20;;;;;;;;;;5032489;28;20228;-73
2023/04/23 10:45:48;;;;;;;2.33;1.50;;;;;;;;;;5033171;28;20184;-73
2023/04/23 10:49:23;;;;;;;1.90;1.20;;;;;;;;;;5020718;28;20185;-73
2023/04/23 10:52:31;;;;;;;1.80;1.50;;;;;;;;;;5033012;28;20561;-74
2023/04/23 10:55:35;;;;;;;2.03;1.67;;;;;;;;;;5032830;28;20505;-74
2023/04/23 10:58:50;;;;;;;2.10;1.63;;;;;;;;;;5020602;28;20177;-74
2023/04/23 11:01:58;;;;;;;2.83;1.67;;;;;;;;;;5032842;28;20228;-74
2023/04/23 11:05:08;;;;;;;2.07;1.70;;;;;;;;;;5032842;28;20185;-73
2023/04/23 11:08:12;;;;;;;6.50;5.83;;;;;;;;;;5020544;28;20189;-74
2023/04/23 11:11:16;;;;;;;2.87;2.10;;;;;;;;;;5034066;28;20216;-74
2023/04/23 11:14:33;;;;;;;3.77;1.90;;;;;;;;;;5036041;28;20177;-74
2023/04/23 11:17:37;;;;;;;2.87;1.43;;;;;;;;;;5035990;28;20189;-73
2023/04/23 11:20:41;;;;;;;2.90;1.70;;;;;;;;;;5012491;28;20216;-73
2023/04/23 11:23:45;;;;;;;3.20;1.50;;;;;;;;;;5036082;28;20176;-74
2023/04/23 11:26:52;;;;;;;2.73;1.47;;;;;;;;;;5036384;28;20525;-74
2023/04/23 11:29:57;;;;;;;1.73;1.63;;;;;;;;;;5023858;28;20181;-74
2023/04/23 11:33:01;;;;;;;2.37;1.53;;;;;;;;;;5024011;28;20181;-74
2023/04/23 11:36:05;;;;;;;1.83;1.40;;;;;;;;;;5035720;28;20204;-74
2023/04/23 11:39:11;;;;;;;2.23;1.43;;;;;;;;;;5035592;28;20185;-74
2023/04/23 11:42:16;;;;;;;4.13;1.60;;;;;;;;;;5023503;28;20224;-75
2023/04/23 11:45:22;;;;;;;3.17;1.50;;;;;;;;;;5024280;23;20237;-72
2023/04/23 11:48:26;;;;;;;1.50;1.30;;;;;;;;;;5016084;28;20170;-73
2023/04/23 11:51:31;;;;;;;1.83;1.40;;;;;;;;;;5015860;28;20562;-73
2023/04/23 11:54:35;;;;;;;1.97;1.40;;;;;;;;;;5015941;28;20199;-72
2023/04/23 11:57:48;;;;;;;1.73;1.47;;;;;;;;;;5003791;28;20174;-75
2023/04/23 12:00:59;;;;;;;2.50;1.50;;;;;;;;;;5003469;28;20219;-73
2023/04/23 12:04:17;;;;;;;3.10;1.43;;;;;;;;;;5015451;28;20644;-72
2023/04/23 12:07:31;;;;;;;1.90;1.50;;;;;;;;;;5015459;28;20536;-73
2023/04/23 12:10:45;;;;;;;3.93;1.67;;;;;;;;;;5016026;28;20201;-72
2023/04/23 12:13:50;;;;;;;3.13;1.80;;;;;;;;;;5015253;28;20197;-73
2023/04/23 12:16:54;;;;;;;3.13;2.00;;;;;;;;;;5015811;28;20177;-73
2023/04/23 12:20:03;;;;;;;2.13;1.90;;;;;;;;;;5015328;28;20174;-73
2023/04/23 12:23:07;;;;;;;3.03;1.67;;;;;;;;;;5015221;28;20211;-72
2023/04/23 12:26:15;;;;;;;2.13;1.93;;;;;;;;;;5015573;28;20181;-73
2023/04/23 12:29:21;;;;;;;1.70;1.60;;;;;;;;;;5002840;28;20639;-72
2023/04/23 12:32:25;;;;;;;2.20;1.90;;;;;;;;;;5014336;28;20224;-73
2023/04/23 12:35:48;;;;;;;2.77;1.80;;;;;;;;;;5014153;28;20198;-73
2023/04/23 12:38:52;;;;;;;1.80;1.43;;;;;;;;;;4991525;28;20188;-72
2023/04/23 12:42:07;;;;;;;2.45;1.50;;;;;;;;;;4991674;28;20219;-73
2023/04/23 12:45:11;;;;;;;1.73;1.40;;;;;;;;;;5014739;28;20208;-73
2023/04/23 12:48:15;;;;;;;3.42;1.50;;;;;;;;;;5002576;28;20197;-73
2023/04/23 12:51:19;;;;;;;2.58;1.50;;;;;;;;;;5014557;28;20218;-72
2023/04/23 12:54:24;;;;;;;2.10;1.52;;;;;;;;;;5014867;28;20175;-73
2023/04/23 12:57:29;;;;;;;1.80;1.60;;;;;;;;;;5014656;28;20174;-73
2023/04/23 13:00:33;;;;;;;2.33;1.50;;;;;;;;;;5014878;28;20181;-73
2023/04/23 13:03:37;;;;;;;3.28;1.67;;;;;;;;;;5014889;28;20225;-73
2023/04/23 13:06:42;;;;;;;2.35;1.40;;;;;;;;;;5013621;28;20645;-73
2023/04/23 13:09:46;;;;;;;1.30;1.20;;;;;;;;;;5014790;28;20181;-72
2023/04/23 13:12:50;;;;;;;1.98;1.80;;;;;;;;;;5014484;28;20179;-72
2023/04/23 13:15:54;;;;;;;2.40;1.90;;;;;;;;;;5014187;28;20180;-72
2023/04/23 13:18:59;;;;;;;2.50;1.70;;;;;;;;;;5014384;28;20635;-72
2023/04/23 13:22:04;;;;;;;3.87;2.37;;;;;;;;;;5014033;28;20217;-72
2023/04/23 13:25:09;;;;;;;2.37;2.00;;;;;;;;;;5001913;28;20548;-72
2023/04/23 13:28:13;;;;;;;1.93;1.57;;;;;;;;;;5002436;28;20175;-72
2023/04/23 13:31:17;;;;;;;2.77;1.70;;;;;;;;;;5001986;28;20210;-72
2023/04/23 13:34:21;;;;;;;3.63;1.50;;;;;;;;;;5013031;28;20641;-72
2023/04/23 13:37:26;;;;;;;2.67;1.67;;;;;;;;;;5013339;28;20526;-72
2023/04/23 13:40:30;;;;;;;2.53;1.87;;;;;;;;;;5002060;28;20186;-73
2023/04/23 13:43:34;;;;;;;2.00;1.80;;;;;;;;;;5014413;28;20225;-72
2023/04/23 13:46:39;;;;;;;3.03;1.97;;;;;;;;;;5014238;28;20179;-73
2023/04/23 13:49:43;;;;;;;2.27;1.40;;;;;;;;;;5014245;28;20515;-72
2023/04/23 13:52:47;;;;;;;3.10;1.73;;;;;;;;;;5013296;28;20183;-72
2023/04/23 13:55:53;;;;;;;2.60;1.93;;;;;;;;;;5013864;28;20186;-72
2023/04/23 13:59:02;;;;;;;3.03;1.80;;;;;;;;;;5001395;28;20637;-73
2023/04/23 14:02:06;;;;;;;2.77;1.87;;;;;;;;;;5013425;28;20217;-72
2023/04/23 14:05:10;;;;;;;3.40;1.73;;;;;;;;;;5013539;28;20189;-72
2023/04/23 14:08:14;;;;;;;4.00;2.00;;;;;;;;;;5013831;28;20648;-72
2023/04/23 14:11:18;;;;;;;2.17;1.77;;;;;;;;;;5013505;28;20687;-73
2023/04/23 14:14:23;;;;;;;3.13;2.07;;;;;;;;;;5013284;28;20656;-72
2023/04/23 14:17:27;;;;;;;2.87;1.80;;;;;;;;;;5001737;28;20181;-73
2023/04/23 14:20:31;;;;;;;2.17;1.90;;;;;;;;;;5013394;28;20182;-73
2023/04/23 14:23:44;;;;;;;2.13;1.60;;;;;;;;;;5013191;28;20205;-74
2023/04/23 14:26:48;;;;;;;3.87;1.77;;;;;;;;;;5013695;28;20181;-75
2023/04/23 14:30:00;;;;;;;1.87;1.60;;;;;;;;;;5013334;28;20178;-75
2023/04/23 14:33:05;;;;;;;4.10;1.40;;;;;;;;;;5013435;28;20515;-75
2023/04/23 14:36:09;;;;;;;3.87;1.73;;;;;;;;;;5012515;28;20189;-74
2023/04/23 14:39:14;;;;;;;1.67;1.40;;;;;;;;;;5013380;28;20178;-74
2023/04/23 14:42:18;;;;;;;3.33;1.70;;;;;;;;;;5000797;28;20577;-73
2023/04/23 14:45:22;;;;;;;1.90;1.70;;;;;;;;;;5000823;28;20213;-74
2023/04/23 14:48:26;;;;;;;5.17;1.60;;;;;;;;;;5017523;28;20632;-73
2023/04/23 14:51:30;;;;;;;2.60;1.80;;;;;;;;;;5017279;28;20213;-71
2023/04/23 14:54:35;;;;;;;2.20;1.60;;;;;;;;;;5016201;28;20170;-71
2023/04/23 14:57:39;;;;;;;2.00;1.80;;;;;;;;;;5017005;28;20187;-72
2023/04/23 15:00:43;;;;;;;2.77;1.97;;;;;;;;;;5017058;28;20219;-72
2023/04/23 15:03:47;;;;;;;3.93;2.13;;;;;;;;;;5016605;28;20218;-71
2023/04/23 15:06:51;;;;;;;2.47;2.07;;;;;;;;;;5004465;28;20194;-73
2023/04/23 15:09:55;;;;;;;2.00;1.80;;;;;;;;;;5017249;28;20204;-75
2023/04/23 15:13:12;;;;;;;2.73;2.17;;;;;;;;;;5016888;28;20183;-74
2023/04/23 15:16:30;;;;;;;2.90;2.30;;;;;;;;;;4993514;28;20182;-72
2023/04/23 15:19:34;;;;;;;3.47;2.10;;;;;;;;;;5015863;28;20190;-72
2023/04/23 15:22:38;;;;;;;3.03;2.03;;;;;;;;;;5004120;28;20213;-74
2023/04/23 15:25:43;;;;;;;3.27;1.70;;;;;;;;;;4993986;28;20183;-72
2023/04/23 15:28:47;;;;;;;3.40;2.30;;;;;;;;;;5016435;28;20197;-73
2023/04/23 15:31:56;;;;;;;5.30;2.17;;;;;;;;;;5004298;28;20230;-74
2023/04/23 15:35:00;;;;;;;9.80;4.77;;;;;;;;;;5016253;28;20177;-74
2023/04/23 15:38:05;;;;;;;16.73;7.73;;;;;;;;;;5016323;28;20174;-73
2023/04/23 15:41:11;;;;;;;9.30;4.83;;;;;;;;;;4982608;28;20664;-73
2023/04/23 15:44:16;;;;;;;5.20;2.40;;;;;;;;;;5003869;28;20217;-74
2023/04/23 15:47:21;;;;;;;16.20;5.43;;;;;;;;;;5015763;28;20201;-74
2023/04/23 15:50:25;;;;;;;2.60;2.07;;;;;;;;;;5003745;28;20182;-75
2023/04/23 15:53:30;;;;;;;4.20;2.00;;;;;;;;;;5016207;28;20648;-75
2023/04/23 15:56:34;;;;;;;4.10;2.43;;;;;;;;;;5015954;28;20177;-75
2023/04/23 15:59:38;;;;;;;3.80;2.63;;;;;;;;;;5015512;28;20173;-75
2023/04/23 16:02:43;;;;;;;4.27;2.40;;;;;;;;;;5015407;28;20217;-74
2023/04/23 16:05:49;;;;;;;4.47;2.50;;;;;;;;;;5015496;28;20521;-74
2023/04/23 16:08:54;;;;;;;2.40;2.00;;;;;;;;;;5015400;28;20185;-74
2023/04/23 16:11:58;;;;;;;4.43;2.20;;;;;;;;;;5015771;28;20557;-75
2023/04/23 16:15:03;;;;;;;4.53;2.23;;;;;;;;;;5015426;28;20185;-75
2023/04/23 16:18:08;;;;;;;2.67;2.03;;;;;;;;;;5014963;28;20181;-74
2023/04/23 16:21:12;;;;;;;2.50;1.73;;;;;;;;;;5015269;28;20217;-74
2023/04/23 16:24:16;;;;;;;3.03;1.93;;;;;;;;;;5014842;28;20213;-74
2023/04/23 16:27:20;;;;;;;2.20;2.00;;;;;;;;;;4992485;28;20620;-74
2023/04/23 16:30:24;;;;;;;2.57;2.00;;;;;;;;;;5015222;28;20178;-74
2023/04/23 16:33:29;;;;;;;2.47;2.03;;;;;;;;;;5015020;28;20193;-74
2023/04/23 16:36:33;;;;;;;3.67;2.20;;;;;;;;;;5014688;28;20182;-74
2023/04/23 16:39:37;;;;;;;2.60;2.40;;;;;;;;;;5015206;28;20186;-74
2023/04/23 16:42:42;;;;;;;2.20;2.00;;;;;;;;;;5015041;28;20221;-74
2023/04/23 16:45:46;;;;;;;3.17;2.20;;;;;;;;;;5014608;28;20197;-74
2023/04/23 16:48:50;;;;;;;2.43;2.23;;;;;;;;;;5002897;28;20174;-74
2023/04/23 16:51:55;;;;;;;2.77;1.90;;;;;;;;;;5014700;28;20209;-74
2023/04/23 16:54:59;;;;;;;2.53;2.00;;;;;;;;;;5014912;28;20178;-74
2023/04/23 16:58:03;;;;;;;5.60;2.63;;;;;;;;;;5014770;28;20201;-73
2023/04/23 17:01:07;;;;;;;3.00;2.37;;;;;;;;;;5014214;28;20217;-74
2023/04/23 17:04:11;;;;;;;2.40;2.20;;;;;;;;;;5014390;28;20569;-73
2023/04/23 17:07:16;;;;;;;2.73;2.30;;;;;;;;;;5013313;28;20660;-74
2023/04/23 17:10:20;;;;;;;3.60;2.40;;;;;;;;;;5013915;28;20197;-74
2023/04/23 17:13:24;;;;;;;2.93;2.30;;;;;;;;;;5014351;28;20177;-74
2023/04/23 17:16:28;;;;;;;2.80;2.33;;;;;;;;;;5014583;28;20177;-74
2023/04/23 17:19:33;;;;;;;2.87;2.40;;;;;;;;;;5013161;28;20169;-74
2023/04/23 17:22:38;;;;;;;5.23;2.50;;;;;;;;;;5002015;28;20213;-74
2023/04/23 17:25:42;;;;;;;2.60;2.40;;;;;;;;;;5002126;28;20522;-74
2023/04/23 17:28:46;;;;;;;3.43;2.23;;;;;;;;;;5014128;28;20185;-74
2023/04/23 17:31:50;;;;;;;2.27;2.07;;;;;;;;;;5001773;28;20217;-74
2023/04/23 17:34:54;;;;;;;2.73;2.27;;;;;;;;;;5013300;28;20178;-74
2023/04/23 17:37:58;;;;;;;4.23;2.27;;;;;;;;;;5013966;28;20637;-74
2023/04/23 17:41:03;;;;;;;3.90;2.43;;;;;;;;;;5013767;28;20213;-74
2023/04/23 17:44:07;;;;;;;5.40;2.60;;;;;;;;;;5013433;28;20229;-74
2023/04/23 17:47:12;;;;;;;2.53;2.33;;;;;;;;;;5014061;28;20185;-73
2023/04/23 17:50:17;;;;;;;6.90;2.97;;;;;;;;;;5013870;28;20182;-74
2023/04/23 17:53:20;;;;;;;5.10;2.40;;;;;;;;;;5013399;28;20197;-74
2023/04/23 17:56:25;;;;;;;2.20;2.00;;;;;;;;;;5013743;28;20192;-74
2023/04/23 17:59:29;;;;;;;3.33;2.20;;;;;;;;;;5013358;28;20605;-74
2023/04/23 18:02:38;;;;;;;4.37;2.40;;;;;;;;;;5013518;28;20217;-74
2023/04/23 18:05:44;;;;;;;5.50;2.70;;;;;;;;;;5001360;28;20178;-74
2023/04/23 18:08:49;;;;;;;2.97;2.10;;;;;;;;;;5012721;28;20174;-74
2023/04/23 18:11:55;;;;;;;2.53;2.30;;;;;;;;;;5001373;28;20221;-74
2023/04/23 18:14:59;;;;;;;3.50;2.63;;;;;;;;;;5001152;28;20178;-74
2023/04/23 18:18:03;;;;;;;3.10;2.73;;;;;;;;;;5001810;28;20620;-74
2023/04/23 18:21:08;;;;;;;2.80;2.50;;;;;;;;;;5013607;28;20704;-74
2023/04/23 18:24:12;;;;;;;3.60;2.93;;;;;;;;;;5005270;28;20212;-73
2023/04/23 18:27:16;;;;;;;2.83;2.60;;;;;;;;;;5005333;28;20173;-74
2023/04/23 18:30:22;;;;;;;4.00;2.97;;;;;;;;;;5017334;28;20177;-74